createdAt,value
2018-12-20T00:03:33.735Z,4.19
2018-12-20T00:08:36.080Z,4.23
2018-12-20T00:13:38.697Z,4.22
2018-12-20T00:18:41.264Z,4.21
2018-12-20T00:23:43.755Z,4.20
2018-12-20T00:28:46.207Z,4.23
2018-12-20T00:33:49.238Z,4.30
2018-12-20T00:38:51.827Z,4.32
2018-12-20T00:43:54.292Z,4.37
2018-12-20T00:48:57.348Z,4.37
2018-12-20T00:53:59.683Z,4.39
2018-12-20T00:59:02.209Z,4.38
2018-12-20T01:04:04.744Z,4.37
2018-12-20T01:09:07.996Z,4.40
2018-12-20T01:14:10.421Z,4.39
2018-12-20T01:19:13.996Z,4.42
2018-12-20T01:24:16.912Z,4.46
2018-12-20T01:29:19.377Z,4.52
2018-12-20T01:34:21.763Z,4.53
2018-12-20T01:39:24.277Z,4.54
2018-12-20T01:44:26.931Z,4.71
2018-12-20T01:49:29.550Z,4.76
2018-12-20T01:54:32.022Z,4.75
2018-12-20T01:59:34.680Z,4.74
2018-12-20T02:04:37.112Z,4.72
2018-12-20T02:09:39.597Z,4.63
2018-12-20T02:14:42.519Z,4.65
2018-12-20T02:19:45.330Z,4.66
2018-12-20T02:24:47.792Z,4.65
2018-12-20T02:29:50.251Z,4.62
2018-12-20T02:34:53.417Z,4.60
2018-12-20T02:39:56.306Z,4.56
2018-12-20T02:44:58.726Z,4.51
2018-12-20T02:50:01.282Z,4.57
2018-12-20T02:55:04.579Z,4.55
2018-12-20T03:00:08.414Z,4.55
2018-12-20T03:05:11.175Z,4.54
2018-12-20T03:10:14.826Z,4.52
2018-12-20T03:15:20.113Z,4.44
2018-12-20T03:20:21.592Z,4.42
2018-12-20T03:25:23.954Z,4.40
2018-12-20T03:30:26.589Z,4.41
2018-12-20T03:35:29.167Z,4.40
2018-12-20T03:40:31.746Z,4.44
2018-12-20T03:45:34.315Z,4.45
2018-12-20T03:50:36.769Z,4.45
2018-12-20T03:55:39.408Z,4.44
2018-12-20T04:00:42.072Z,4.44
2018-12-20T04:05:44.788Z,4.39
2018-12-20T04:10:47.512Z,4.37
2018-12-20T04:15:49.945Z,4.38
2018-12-20T04:20:52.765Z,4.39
2018-12-20T04:25:55.251Z,4.44
2018-12-20T04:30:57.996Z,4.45
2018-12-20T04:36:00.369Z,4.42
2018-12-20T04:41:02.867Z,4.41
2018-12-20T04:46:05.253Z,4.40
2018-12-20T04:51:07.677Z,4.40
2018-12-20T04:56:10.318Z,4.42
2018-12-20T05:01:12.978Z,4.39
2018-12-20T05:06:15.992Z,4.40
2018-12-20T05:11:18.425Z,4.39
2018-12-20T05:16:21.214Z,4.40
2018-12-20T05:21:23.761Z,4.43
2018-12-20T05:26:26.864Z,4.46
2018-12-20T05:31:29.342Z,4.51
2018-12-20T05:36:31.768Z,4.54
2018-12-20T05:41:35.032Z,4.60
2018-12-20T05:46:37.442Z,4.79
2018-12-20T05:51:40.068Z,4.80
2018-12-20T05:56:43.549Z,4.80
2018-12-20T06:01:45.925Z,4.87
2018-12-20T06:06:48.413Z,4.94
2018-12-20T06:11:50.998Z,5.04
2018-12-20T06:16:53.447Z,5.17
2018-12-20T06:21:55.802Z,5.38
2018-12-20T06:26:58.521Z,5.40
2018-12-20T06:32:00.917Z,5.43
2018-12-20T06:37:03.552Z,5.39
2018-12-20T06:42:06.132Z,5.44
2018-12-20T06:47:08.644Z,5.43
2018-12-20T06:52:11.077Z,5.44
2018-12-20T06:57:13.387Z,5.43
2018-12-20T07:02:15.808Z,5.48
2018-12-20T07:07:18.439Z,5.49
2018-12-20T07:12:20.798Z,5.56
2018-12-20T07:17:23.241Z,5.55
2018-12-20T07:22:25.564Z,5.56
2018-12-20T07:27:28.638Z,5.61
2018-12-20T07:32:31.008Z,5.58
2018-12-20T07:37:33.342Z,5.59
2018-12-20T07:42:35.755Z,5.60
2018-12-20T07:47:38.082Z,5.58
2018-12-20T07:52:40.860Z,5.55
2018-12-20T07:57:43.403Z,5.54
2018-12-20T08:02:45.954Z,5.54
2018-12-20T08:07:48.889Z,5.55
2018-12-20T08:12:51.203Z,5.53
2018-12-20T08:17:53.530Z,5.59
2018-12-20T08:22:56.493Z,5.59
2018-12-20T08:27:58.969Z,5.65
2018-12-20T08:33:01.462Z,5.69
2018-12-20T08:38:04.007Z,5.72
2018-12-20T08:43:06.365Z,5.73
2018-12-20T08:48:09.061Z,5.81
2018-12-20T08:53:11.461Z,5.78
2018-12-20T08:58:14.098Z,5.82
2018-12-20T09:03:16.677Z,5.86
2018-12-20T09:08:19.649Z,5.84
2018-12-20T09:13:22.721Z,5.90
2018-12-20T09:18:25.105Z,5.98
2018-12-20T09:23:27.646Z,6.00
2018-12-20T09:28:30.157Z,5.99
2018-12-20T09:33:32.590Z,5.96
2018-12-20T09:38:35.794Z,6.08
2018-12-20T09:43:38.352Z,6.08
2018-12-20T09:48:40.734Z,6.05
2018-12-20T09:53:43.025Z,6.02
2018-12-20T09:58:45.391Z,6.02
2018-12-20T10:03:47.764Z,6.09
2018-12-20T10:08:50.697Z,6.05
2018-12-20T10:13:53.117Z,6.11
2018-12-20T10:18:55.914Z,6.13
2018-12-20T10:23:58.279Z,6.15
2018-12-20T10:29:00.644Z,6.22
2018-12-20T10:34:03.304Z,6.31
2018-12-20T10:39:06.783Z,6.29
2018-12-20T10:44:09.533Z,6.28
2018-12-20T10:49:12.395Z,6.32
2018-12-20T10:54:14.747Z,6.39
2018-12-20T10:59:17.114Z,6.35
2018-12-20T11:04:25.224Z,6.29
2018-12-20T11:09:33.619Z,6.23
2018-12-20T11:14:36.407Z,6.25
2018-12-20T11:19:38.799Z,6.31
2018-12-20T11:24:41.193Z,6.27
2018-12-20T11:29:44.197Z,6.33
2018-12-20T11:34:46.545Z,6.28
2018-12-20T11:39:48.912Z,6.27
2018-12-20T11:44:51.222Z,6.22
2018-12-20T11:49:53.558Z,6.26
2018-12-20T11:54:56.330Z,6.31
2018-12-20T11:59:58.721Z,6.30
2018-12-20T12:05:01.244Z,6.33
2018-12-20T12:10:05.487Z,6.35
2018-12-20T12:15:08.084Z,6.38
2018-12-20T12:20:10.491Z,6.40
2018-12-20T12:25:13.026Z,6.34
2018-12-20T12:30:15.508Z,6.42
2018-12-20T12:35:17.835Z,6.42
2018-12-20T12:40:20.653Z,6.39
2018-12-20T12:45:23.067Z,6.45
2018-12-20T12:50:25.905Z,6.49
2018-12-20T12:55:28.635Z,6.51
2018-12-20T13:00:31.104Z,6.42
2018-12-20T13:05:33.494Z,6.41
2018-12-20T13:10:35.881Z,6.39
2018-12-20T13:15:38.290Z,6.38
2018-12-20T13:20:40.653Z,6.37
2018-12-20T13:25:43.060Z,6.42
2018-12-20T13:30:45.465Z,6.40
2018-12-20T13:35:47.781Z,6.39
2018-12-20T13:40:50.085Z,6.37
2018-12-20T13:45:52.830Z,6.40
2018-12-20T13:50:55.228Z,6.37
2018-12-20T13:55:57.894Z,6.32
2018-12-20T14:01:00.437Z,6.36
2018-12-20T14:06:02.963Z,6.39
2018-12-20T14:11:05.924Z,6.45
2018-12-20T14:16:08.584Z,6.40
2018-12-20T14:21:11.955Z,6.40
2018-12-20T14:26:14.462Z,6.42
2018-12-20T14:31:16.793Z,6.48
2018-12-20T14:36:19.406Z,6.47
2018-12-20T14:41:21.905Z,6.52
2018-12-20T14:46:24.229Z,6.47
2018-12-20T14:51:26.666Z,6.48
2018-12-20T14:56:29.297Z,6.45
2018-12-20T15:01:31.553Z,6.42
2018-12-20T15:06:35.627Z,6.39
2018-12-20T15:11:38.212Z,6.43
2018-12-20T15:16:41.428Z,6.45
2018-12-20T15:21:43.791Z,6.45
2018-12-20T15:26:46.125Z,6.52
2018-12-20T15:31:53.297Z,6.47
2018-12-20T15:36:53.305Z,6.54
2018-12-20T15:41:55.997Z,6.48
2018-12-20T15:46:58.351Z,6.53
2018-12-20T15:52:00.749Z,6.52
2018-12-20T15:57:03.266Z,6.54
2018-12-20T16:02:05.882Z,6.44
2018-12-20T16:07:08.636Z,6.48
2018-12-20T16:12:11.010Z,6.55
2018-12-20T16:17:13.362Z,6.51
2018-12-20T16:22:15.859Z,6.53
2018-12-20T16:27:18.185Z,6.48
2018-12-20T16:32:20.577Z,6.48
2018-12-20T16:37:22.953Z,6.43
2018-12-20T16:42:25.289Z,6.41
2018-12-20T16:47:27.620Z,6.34
2018-12-20T16:52:30.184Z,6.42
2018-12-20T16:57:32.582Z,6.45
2018-12-20T17:02:34.993Z,6.38
2018-12-20T17:07:37.556Z,6.37
2018-12-20T17:12:39.945Z,6.38
2018-12-20T17:17:42.274Z,6.40
2018-12-20T17:22:44.697Z,6.43
2018-12-20T17:27:47.449Z,6.46
2018-12-20T17:32:49.954Z,6.48
2018-12-20T17:37:52.329Z,6.51
2018-12-20T17:42:54.718Z,6.49
2018-12-20T17:47:57.206Z,6.51
2018-12-20T17:52:59.866Z,6.53
2018-12-20T17:58:02.346Z,6.49
2018-12-20T18:03:05.320Z,6.49
2018-12-20T18:08:07.679Z,6.54
2018-12-20T18:13:10.090Z,6.69
2018-12-20T18:18:12.811Z,6.52
2018-12-20T18:23:15.300Z,6.50
2018-12-20T18:28:17.839Z,6.54
2018-12-20T18:33:20.290Z,6.48
2018-12-20T18:38:23.370Z,6.47
2018-12-20T18:43:25.891Z,6.49
2018-12-20T18:48:29.277Z,6.47
2018-12-20T18:53:31.811Z,6.54
2018-12-20T18:58:34.379Z,6.52
2018-12-20T19:03:37.017Z,6.47
2018-12-20T19:08:39.531Z,6.45
2018-12-20T19:13:42.111Z,6.47
2018-12-20T19:18:44.520Z,6.53
2018-12-20T19:23:47.002Z,6.58
2018-12-20T19:28:49.374Z,6.44
2018-12-20T19:33:52.246Z,6.51
2018-12-20T19:38:54.792Z,6.52
2018-12-20T19:43:57.138Z,6.49
2018-12-20T19:48:59.547Z,6.45
2018-12-20T19:54:02.114Z,6.37
2018-12-20T19:59:04.814Z,6.45
2018-12-20T20:04:08.134Z,6.40
2018-12-20T20:09:10.629Z,6.46
2018-12-20T20:14:13.244Z,6.47
2018-12-20T20:19:15.595Z,6.38
2018-12-20T20:24:18.176Z,6.37
2018-12-20T20:29:20.542Z,6.43
2018-12-20T20:34:22.976Z,6.38
2018-12-20T20:39:25.399Z,6.40
2018-12-20T20:44:28.111Z,6.46
2018-12-20T20:49:30.548Z,6.52
2018-12-20T20:54:32.960Z,6.60
2018-12-20T20:59:35.621Z,6.58
2018-12-20T21:04:37.978Z,6.61
2018-12-20T21:09:40.547Z,6.58
2018-12-20T21:14:42.990Z,6.65
2018-12-20T21:19:45.430Z,6.65
2018-12-20T21:24:47.889Z,6.68
2018-12-20T21:29:50.338Z,6.61
2018-12-20T21:34:53.468Z,6.63
2018-12-20T21:39:56.647Z,6.60
2018-12-20T21:44:59.034Z,6.54
2018-12-20T21:50:01.554Z,6.54
2018-12-20T21:55:04.605Z,6.42
2018-12-20T22:00:09.502Z,6.49
2018-12-20T22:05:11.961Z,6.52
2018-12-20T22:10:14.344Z,6.54
2018-12-20T22:15:16.922Z,6.55
2018-12-20T22:20:19.277Z,6.66
2018-12-20T22:25:21.721Z,6.64
2018-12-20T22:30:24.251Z,6.69
2018-12-20T22:35:26.798Z,6.68
2018-12-20T22:40:30.029Z,6.67
2018-12-20T22:45:32.305Z,6.72
2018-12-20T22:50:34.936Z,6.75
2018-12-20T22:55:37.277Z,6.79
2018-12-20T23:00:41.823Z,6.81
2018-12-20T23:05:44.197Z,6.78
2018-12-20T23:10:46.639Z,6.79
2018-12-20T23:15:49.341Z,6.81
2018-12-20T23:20:51.685Z,6.80
2018-12-20T23:25:54.309Z,6.77
2018-12-20T23:30:57.105Z,6.80
2018-12-20T23:35:59.461Z,6.78
2018-12-20T23:41:02.351Z,6.79
2018-12-20T23:46:04.685Z,6.81
2018-12-20T23:51:13.406Z,6.77
2018-12-20T23:56:11.718Z,6.80
